Time;durP1;ratioP1;P1;durP2;ratioP2;P2;SDS_P1;SDS_P2;PMS_P1;PMS_P2;Temp;Humidity;BMP_temperature;BMP_pressure;BME280_temperature;BME280_humidity;BME280_pressure;Samples;Min_cycle;Max_cycle;Signal;HPM_P1;HPM_P2
2022/04/19 07:58:42;;;;;;;12.05;9.23;;;;;;;13.70;43.39;101342.91;5304657;27;20366;-85
2022/04/19 08:01:15;;;;;;;13.40;9.13;;;;;;;13.80;42.93;101343.88;5261269;28;20037;-83
2022/04/19 08:03:46;;;;;;;12.35;9.82;;;;;;;13.83;42.85;101355.25;5240930;28;20018;-84
2022/04/19 08:06:18;;;;;;;14.90;10.00;;;;;;;13.94;42.53;101343.97;5244184;28;20080;-84
2022/04/19 08:08:49;;;;;;;12.40;9.18;;;;;;;14.06;42.15;101350.78;5232792;28;20356;-86
2022/04/19 08:11:20;;;;;;;13.40;9.48;;;;;;;14.11;43.50;101347.91;5261145;28;20029;-84
2022/04/19 08:13:51;;;;;;;14.70;11.68;;;;;;;14.17;42.29;101345.88;5243759;28;20026;-83
2022/04/19 08:16:23;;;;;;;15.25;10.05;;;;;;;14.27;42.32;101342.09;5254936;28;20037;-83
2022/04/19 08:18:54;;;;;;;11.30;9.80;;;;;;;14.36;42.47;101338.28;5256082;28;20033;-82
2022/04/19 08:21:35;;;;;;;11.48;8.07;;;;;;;14.45;41.97;101340.41;5238609;28;20022;-82
2022/04/19 08:24:06;;;;;;;12.63;8.57;;;;;;;14.48;41.63;101343.41;5245525;28;20377;-82
2022/04/19 08:26:37;;;;;;;14.00;8.63;;;;;;;14.57;41.69;101335.19;5243537;28;20046;-89
2022/04/19 08:29:08;;;;;;;9.43;7.32;;;;;;;14.65;45.06;101331.72;5256365;28;20033;-82
2022/04/19 08:31:40;;;;;;;10.23;7.35;;;;;;;14.71;41.94;101327.72;5257949;28;20041;-80
2022/04/19 08:34:12;;;;;;;11.57;9.40;;;;;;;14.80;40.42;101330.63;5257450;28;20033;-82
2022/04/19 08:36:49;;;;;;;8.77;7.35;;;;;;;14.86;40.24;101335.00;5246060;28;20101;-85
2022/04/19 08:39:21;;;;;;;12.48;8.07;;;;;;;14.92;41.20;101330.13;5243506;28;20028;-86
2022/04/19 08:41:52;;;;;;;10.70;7.28;;;;;;;15.02;40.61;101332.75;5245521;28;20148;-86
2022/04/19 08:44:23;;;;;;;9.20;7.40;;;;;;;15.09;40.73;101330.38;5246150;28;20027;-84
2022/04/19 08:46:57;;;;;;;11.52;7.63;;;;;;;15.18;40.08;101324.88;5245249;28;20043;-83
2022/04/19 08:49:28;;;;;;;8.75;7.53;;;;;;;15.30;40.15;101332.78;5255363;28;20036;-85
2022/04/19 08:52:00;;;;;;;11.32;9.02;;;;;;;15.33;39.68;101337.75;5258205;28;20383;-78
2022/04/19 08:57:30;;;;;;;16.10;11.32;;;;;;;15.50;38.84;101329.56;5248697;28;20057;-84
2022/04/19 09:00:04;;;;;;;11.23;7.13;;;;;;;15.60;39.50;101332.16;5239017;28;20029;-85
2022/04/19 09:02:39;;;;;;;12.20;7.15;;;;;;;15.79;38.31;101325.63;5249554;28;20115;-85
2022/04/19 09:05:19;;;;;;;8.30;6.07;;;;;;;15.73;38.47;101332.47;5250939;28;20021;-83
2022/04/19 09:07:52;;;;;;;8.40;6.57;;;;;;;15.79;38.19;101329.25;5251202;28;20025;-83
2022/04/19 09:10:31;;;;;;;8.27;6.85;;;;;;;15.98;38.54;101333.88;5219954;28;20092;-82
2022/04/19 09:13:19;;;;;;;7.22;5.93;;;;;;;15.96;38.42;101328.59;5227721;28;20029;-83
2022/04/19 09:15:53;;;;;;;7.82;5.63;;;;;;;15.99;38.91;101322.38;5229885;28;20042;-84
2022/04/19 09:18:30;;;;;;;6.80;5.18;;;;;;;15.94;37.48;101318.88;5239379;28;20021;-80
2022/04/19 09:21:07;;;;;;;8.32;5.55;;;;;;;15.91;37.45;101322.31;5237617;28;20040;-82
2022/04/19 09:23:52;;;;;;;9.25;6.43;;;;;;;15.94;38.25;101314.09;5239423;28;20033;-80
2022/04/19 09:26:42;;;;;;;9.17;5.70;;;;;;;15.93;37.97;101320.03;5241251;28;20430;-81
2022/04/19 09:29:27;;;;;;;10.98;6.97;;;;;;;16.03;38.15;101319.78;5229170;28;20032;-80
2022/04/19 09:31:58;;;;;;;11.32;6.13;;;;;;;16.08;38.09;101314.91;5241896;28;20041;-81
2022/04/19 09:34:34;;;;;;;7.82;6.50;;;;;;;16.09;38.41;101322.13;5231909;28;20026;-81
2022/04/19 09:37:10;;;;;;;7.80;5.43;;;;;;;16.18;39.04;101311.03;5243119;28;20125;-81
2022/04/19 09:39:44;;;;;;;7.82;5.32;;;;;;;16.28;37.50;101312.75;5241526;28;20532;-79
2022/04/19 09:42:15;;;;;;;6.82;5.22;;;;;;;16.29;37.42;101314.41;5243001;28;20480;-78
2022/04/19 09:44:56;;;;;;;8.98;6.20;;;;;;;16.32;36.75;101310.97;5239424;28;20068;-79
2022/04/19 09:47:27;;;;;;;9.48;5.97;;;;;;;16.45;37.30;101317.66;5235921;28;20026;-80
2022/04/19 09:49:58;;;;;;;7.80;5.22;;;;;;;16.58;36.68;101321.53;5235814;28;20034;-80
2022/04/19 09:52:30;;;;;;;8.45;5.35;;;;;;;16.56;35.78;101309.81;5217330;28;20033;-80
2022/04/19 09:55:10;;;;;;;8.38;5.43;;;;;;;16.68;36.27;101312.88;5235376;28;20087;-79
2022/04/19 09:57:43;;;;;;;8.55;5.35;;;;;;;16.68;36.08;101312.88;5242491;28;20049;-81
2022/04/19 10:00:17;;;;;;;7.57;5.22;;;;;;;16.72;37.16;101308.28;5244119;28;20033;-79
2022/04/19 10:08:31;;;;;;;6.47;5.13;;;;;;;16.92;36.93;101295.72;5218636;28;20125;-79
2022/04/19 10:11:03;;;;;;;6.50;5.03;;;;;;;16.91;35.61;101294.91;5212012;28;20101;-78
2022/04/19 10:13:35;;;;;;;6.85;4.97;;;;;;;16.93;36.19;101295.41;5231613;28;20436;-79
2022/04/19 10:16:14;;;;;;;10.02;5.03;;;;;;;16.95;35.46;101293.13;5238622;28;20030;-82
2022/04/19 10:18:46;;;;;;;8.73;4.70;;;;;;;17.12;35.54;101288.75;5226595;28;20460;-83
2022/04/19 10:21:24;;;;;;;6.97;4.30;;;;;;;17.25;35.11;101296.22;5234329;28;20025;-83
2022/04/19 10:24:15;;;;;;;67.72;60.55;;;;;;;17.36;35.19;101297.59;5226883;28;20054;-81
2022/04/19 10:26:48;;;;;;;7.20;5.38;;;;;;;17.22;34.52;101296.03;5234874;28;20097;-83
2022/04/19 10:29:32;;;;;;;6.35;5.13;;;;;;;17.21;34.88;101300.00;5241607;28;20029;-83
2022/04/19 10:32:06;;;;;;;8.68;5.57;;;;;;;17.13;35.00;101296.84;5240622;28;20025;-83
2022/04/19 10:34:39;;;;;;;8.20;5.60;;;;;;;17.15;35.44;101302.94;5241733;28;20029;-82
2022/04/19 10:37:18;;;;;;;8.32;5.72;;;;;;;17.22;35.44;101296.03;5236723;28;20029;-82
2022/04/19 10:40:07;;;;;;;11.25;8.80;;;;;;;17.28;34.73;101286.31;5225482;28;20037;-87
2022/04/19 10:42:40;;;;;;;67.28;59.92;;;;;;;17.32;36.41;101293.75;5216821;28;20135;-83
2022/04/19 10:45:11;;;;;;;23.65;20.23;;;;;;;17.44;36.50;101295.13;5231679;28;20026;-80
2022/04/19 10:48:03;;;;;;;9.33;6.60;;;;;;;17.53;34.99;101284.75;5231423;28;20408;-83
2022/04/19 10:50:47;;;;;;;8.38;6.22;;;;;;;17.64;34.97;101288.06;5236072;28;20333;-84
2022/04/19 10:53:31;;;;;;;8.13;6.00;;;;;;;17.55;35.63;101276.84;5230127;28;20034;-83
2022/04/19 10:56:06;;;;;;;9.00;5.78;;;;;;;17.64;35.08;101276.84;5225584;28;20025;-80
2022/04/19 10:58:40;;;;;;;8.25;5.75;;;;;;;17.54;34.73;101275.22;5238314;28;20099;-81
2022/04/19 11:01:29;;;;;;;6.40;4.70;;;;;;;17.59;33.98;101275.88;5237518;28;20033;-84
2022/04/19 11:04:04;;;;;;;5.43;4.20;;;;;;;17.70;33.87;101273.56;5247876;28;20452;-79
2022/04/19 11:06:40;;;;;;;6.50;4.93;;;;;;;17.79;33.56;101277.25;5256159;28;20021;-82
2022/04/19 11:09:14;;;;;;;5.55;4.43;;;;;;;17.92;32.96;101269.84;5246784;28;20536;-76
2022/04/19 11:11:54;;;;;;;6.07;4.60;;;;;;;17.98;33.70;101262.09;5230293;28;20018;-79
2022/04/19 11:14:36;;;;;;;4.40;3.90;;;;;;;18.08;32.88;101260.94;5228030;28;20033;-78
2022/04/19 11:17:28;;;;;;;6.35;5.40;;;;;;;18.13;35.05;101258.78;5238077;28;20030;-81
2022/04/19 11:20:43;;;;;;;7.05;5.05;;;;;;;18.10;33.69;101253.84;5228690;28;20021;-80
2022/04/19 11:23:19;;;;;;;8.32;5.75;;;;;;;18.13;34.58;101258.78;5241426;28;20528;-78
2022/04/19 11:25:51;;;;;;;7.63;5.28;;;;;;;18.13;34.20;101263.56;5215366;28;20033;-78
2022/04/19 11:28:24;;;;;;;8.05;5.50;;;;;;;18.27;34.16;101254.97;5230278;28;20493;-80
2022/04/19 11:30:56;;;;;;;7.15;5.30;;;;;;;18.36;34.39;101250.19;5223710;28;20025;-81
2022/04/19 11:33:31;;;;;;;7.50;5.93;;;;;;;18.29;34.74;101247.03;5225171;28;20025;-79
2022/04/19 11:36:03;;;;;;;;;;;;;;;18.43;34.24;101253.28;5226594;28;20337;-77
2022/04/19 11:38:39;;;;;;;8.13;6.05;;;;;;;18.35;33.01;101256.94;5241844;28;20417;-78
2022/04/19 11:46:58;;;;;;;7.70;6.00;;;;;;;18.64;34.51;101245.81;5236092;28;20034;-73
2022/04/19 11:49:34;;;;;;;8.80;6.10;;;;;;;18.64;34.42;101257.03;5220468;28;20375;-77
2022/04/19 11:52:11;;;;;;;9.45;7.47;;;;;;;18.72;33.93;101257.38;5239914;28;20044;-76
2022/04/19 11:54:43;;;;;;;11.00;6.65;;;;;;;18.62;34.09;101258.53;5241401;28;20038;-77
2022/04/19 11:57:14;;;;;;;8.05;6.60;;;;;;;18.73;33.63;101253.38;5240288;28;20033;-76
2022/04/19 11:59:52;;;;;;;8.35;6.05;;;;;;;18.49;34.16;101253.94;5241074;28;20116;-76
2022/04/19 12:02:23;;;;;;;7.28;5.30;;;;;;;18.64;33.15;101251.44;5232659;28;20029;-77
2022/04/19 12:04:57;;;;;;;7.15;5.05;;;;;;;18.80;32.77;101253.72;5239889;28;20029;-77
2022/04/19 12:07:28;;;;;;;7.95;5.00;;;;;;;18.68;32.67;101246.78;5239341;28;20045;-77
2022/04/19 12:10:00;;;;;;;9.82;6.47;;;;;;;18.87;31.67;101254.03;5227982;28;20056;-72
2022/04/19 12:12:31;;;;;;;6.47;4.85;;;;;;;18.73;32.11;101247.75;5241491;28;20034;-76
2022/04/19 12:15:03;;;;;;;7.80;5.10;;;;;;;18.98;32.47;101235.63;5240818;28;20060;-78
2022/04/19 12:17:43;;;;;;;7.65;5.50;;;;;;;19.21;32.98;101240.97;5237855;28;20060;-78
2022/04/19 12:20:14;;;;;;;6.55;5.22;;;;;;;19.07;31.69;101246.81;5231385;28;20037;-79
2022/04/19 12:22:51;;;;;;;11.30;7.20;;;;;;;18.97;31.59;101241.56;5222051;28;20386;-80
2022/04/19 12:25:23;;;;;;;7.43;4.70;;;;;;;19.14;32.42;101251.94;5225930;28;20026;-80
2022/04/19 12:27:54;;;;;;;8.40;5.38;;;;;;;19.08;31.78;101238.06;5242819;28;20423;-79
2022/04/19 12:30:29;;;;;;;8.20;6.07;;;;;;;19.15;31.58;101225.44;5236929;28;20013;-80
2022/04/19 12:33:02;;;;;;;9.30;7.90;;;;;;;19.36;31.95;101229.16;5241653;28;20025;-75
2022/04/19 12:35:34;;;;;;;8.98;6.00;;;;;;;19.32;32.27;101229.00;5235780;28;20487;-78
2022/04/19 12:38:16;;;;;;;8.15;5.80;;;;;;;19.47;31.43;101227.59;5229057;28;20026;-78
2022/04/19 12:40:50;;;;;;;6.50;5.22;;;;;;;19.58;31.35;101227.19;5223709;28;20034;-79
2022/04/19 12:43:44;;;;;;;7.00;5.47;;;;;;;19.60;31.40;101224.84;5228011;28;20025;-74
2022/04/19 12:46:16;;;;;;;9.88;5.65;;;;;;;19.52;31.24;101218.94;5238860;28;20095;-77
2022/04/19 12:48:53;;;;;;;8.63;5.50;;;;;;;19.58;31.52;101219.56;5238631;28;20041;-77
2022/04/19 12:51:25;;;;;;;8.32;5.50;;;;;;;19.64;31.63;101214.56;5235484;28;20034;-78
2022/04/19 12:54:09;;;;;;;6.90;4.93;;;;;;;19.71;32.17;101217.69;5224338;28;20026;-79
2022/04/19 12:56:40;;;;;;;11.38;7.00;;;;;;;19.72;32.38;101205.28;5235454;28;20485;-83
2022/04/19 12:59:12;;;;;;;10.32;6.38;;;;;;;19.71;32.04;101195.16;5234199;28;20116;-81
2022/04/19 13:01:44;;;;;;;7.80;5.35;;;;;;;19.73;31.66;101202.09;5240212;28;20033;-78
2022/04/19 13:04:16;;;;;;;8.55;5.90;;;;;;;19.78;30.45;101203.88;5228791;28;20484;-82
2022/04/19 13:12:27;;;;;;;6.90;5.63;;;;;;;19.97;31.04;101203.41;5244601;28;20489;-76
2022/04/19 13:15:00;;;;;;;8.98;4.97;;;;;;;20.11;30.10;101203.09;5238516;28;20038;-77
2022/04/19 13:17:34;;;;;;;8.73;6.00;;;;;;;20.03;30.23;101209.66;5242325;28;20033;-76
2022/04/19 13:20:09;;;;;;;7.27;6.20;;;;;;;20.05;31.22;101196.06;5230958;28;20100;-76
2022/04/19 13:22:41;;;;;;;12.57;6.55;;;;;;;20.20;30.81;101198.22;5233565;28;20450;-76
2022/04/19 13:25:12;;;;;;;8.02;5.30;;;;;;;20.19;31.04;101191.75;5226512;28;20076;-77
2022/04/19 13:27:47;;;;;;;8.57;4.80;;;;;;;20.22;29.90;101201.50;5217222;28;20024;-77
2022/04/19 13:30:19;;;;;;;6.72;5.25;;;;;;;20.26;29.89;101193.19;5237080;28;20128;-76
2022/04/19 13:32:50;;;;;;;7.18;5.32;;;;;;;20.27;30.19;101181.56;5223541;28;20568;-78
2022/04/19 13:35:23;;;;;;;9.55;5.28;;;;;;;20.35;30.21;101188.28;5222664;28;20025;-78
2022/04/19 13:40:44;;;;;;;8.70;6.32;;;;;;;20.45;30.29;101198.28;5228088;28;20435;-78
2022/04/19 13:43:15;;;;;;;13.68;7.18;;;;;;;20.35;29.94;101183.50;5227447;28;20022;-76
2022/04/19 13:45:47;;;;;;;9.13;5.72;;;;;;;20.45;31.41;101187.00;5232203;28;20049;-77
2022/04/19 13:48:18;;;;;;;8.48;6.15;;;;;;;20.45;30.36;101185.00;5228962;28;20136;-74
2022/04/19 13:50:51;;;;;;;8.80;6.47;;;;;;;20.69;30.38;101181.47;5241392;28;20065;-75
2022/04/19 13:53:25;;;;;;;6.95;5.38;;;;;;;20.68;30.96;101182.63;5244553;28;20456;-80
2022/04/19 13:55:57;;;;;;;10.18;5.70;;;;;;;20.66;32.35;101186.97;5235799;28;20033;-76
2022/04/19 13:58:28;;;;;;;15.25;13.43;;;;;;;20.65;30.92;101183.31;5235825;28;20053;-78
2022/04/19 14:01:02;;;;;;;11.95;10.60;;;;;;;20.98;31.20;101183.22;5234418;28;20031;-78
2022/04/19 14:03:33;;;;;;;16.85;13.27;;;;;;;21.09;30.19;101177.13;5239879;28;20380;-79
2022/04/19 14:06:05;;;;;;;7.63;6.38;;;;;;;21.00;30.15;101175.25;5231371;28;20052;-79
2022/04/19 14:08:36;;;;;;;9.25;6.63;;;;;;;21.00;29.55;101182.88;5231697;28;20034;-80
2022/04/19 14:11:11;;;;;;;8.90;7.25;;;;;;;20.87;28.95;101182.06;5238287;28;20489;-80
2022/04/19 14:13:42;;;;;;;10.60;5.90;;;;;;;20.83;29.86;101181.09;5237634;28;20054;-80
2022/04/19 14:16:13;;;;;;;7.60;5.82;;;;;;;20.83;28.80;101181.94;5229772;28;20421;-80
2022/04/19 14:18:45;;;;;;;8.95;6.60;;;;;;;20.97;29.38;101180.78;5234190;28;20034;-81
2022/04/19 14:21:19;;;;;;;6.90;5.20;;;;;;;21.00;29.80;101178.06;5234261;28;20037;-80
2022/04/19 14:23:51;;;;;;;19.33;17.33;;;;;;;20.97;29.19;101170.31;5228827;28;20504;-81
2022/04/19 14:26:22;;;;;;;6.38;5.30;;;;;;;21.11;28.71;101169.13;5230850;28;20171;-82
2022/04/19 14:34:33;;;;;;;9.85;6.60;;;;;;;20.96;29.28;101179.13;5220603;28;20494;-81
2022/04/19 14:37:05;;;;;;;9.48;6.38;;;;;;;20.96;30.85;101174.31;5237922;28;20033;-79
2022/04/19 14:39:36;;;;;;;7.53;5.40;;;;;;;20.78;30.04;101159.59;5222216;28;20021;-78
2022/04/19 14:42:07;;;;;;;10.98;5.50;;;;;;;20.80;29.41;101168.53;5226662;28;20048;-79
2022/04/19 14:44:41;;;;;;;11.60;8.60;;;;;;;20.81;29.96;101167.38;5222333;28;20030;-79
2022/04/19 14:47:13;;;;;;;26.20;23.38;;;;;;;20.91;30.71;101162.44;5239467;28;20055;-79
2022/04/19 14:49:45;;;;;;;7.65;5.35;;;;;;;20.64;29.63;101164.78;5235169;28;20029;-78
2022/04/19 14:52:21;;;;;;;9.82;5.28;;;;;;;20.58;30.24;101163.34;5239311;28;20483;-79
2022/04/19 14:54:52;;;;;;;9.05;5.00;;;;;;;20.69;30.85;101155.28;5229232;28;20378;-78
2022/04/19 14:57:27;;;;;;;7.03;4.50;;;;;;;20.74;30.38;101155.06;5235069;28;20047;-78
2022/04/19 14:59:58;;;;;;;6.35;4.97;;;;;;;20.52;29.37;101159.91;5237496;28;20030;-78
2022/04/19 15:02:29;;;;;;;6.97;4.65;;;;;;;20.36;28.82;101159.78;5231255;28;20083;-77
2022/04/19 15:05:04;;;;;;;6.18;4.00;;;;;;;20.38;29.00;101168.69;5243157;28;20107;-78
2022/04/19 15:07:36;;;;;;;6.80;4.30;;;;;;;20.37;28.94;101167.03;5244035;28;20048;-78
2022/04/19 15:10:07;;;;;;;6.90;4.85;;;;;;;20.27;29.49;101158.22;5229503;28;20327;-78
2022/04/19 15:12:39;;;;;;;6.93;4.13;;;;;;;20.19;30.48;101163.59;5232072;28;20021;-77
2022/04/19 15:15:10;;;;;;;5.85;4.40;;;;;;;20.08;30.16;101161.56;5229636;28;20456;-77
2022/04/19 15:17:41;;;;;;;4.43;3.35;;;;;;;20.22;31.03;101156.44;5236551;28;20461;-78
2022/04/19 15:20:12;;;;;;;5.50;4.22;;;;;;;20.38;31.83;101156.63;5230225;28;20068;-76
2022/04/19 15:22:44;;;;;;;5.85;4.55;;;;;;;20.20;30.69;101154.00;5241864;28;20060;-77
2022/04/19 15:25:15;;;;;;;7.03;6.18;;;;;;;20.34;30.26;101164.91;5225128;28;20076;-77
2022/04/19 15:27:47;;;;;;;6.38;3.58;;;;;;;20.05;30.30;101167.91;5241520;28;20117;-78
2022/04/19 15:30:24;;;;;;;4.00;3.60;;;;;;;20.05;30.09;101153.81;5237953;28;20057;-78
2022/04/19 15:32:55;;;;;;;6.05;4.18;;;;;;;20.02;30.62;101163.78;5227519;28;20072;-78
2022/04/19 15:35:27;;;;;;;6.90;4.05;;;;;;;20.03;31.07;101158.97;5240858;28;20421;-78
2022/04/19 15:37:58;;;;;;;5.10;4.00;;;;;;;19.89;32.01;101159.25;5241665;28;20025;-78
2022/04/19 15:40:29;;;;;;;3.67;3.20;;;;;;;19.95;31.03;101155.06;5221604;28;20064;-73
2022/04/19 15:43:04;;;;;;;3.97;3.22;;;;;;;19.91;30.25;101156.94;5226217;28;20022;-77
2022/04/19 15:45:35;;;;;;;4.45;3.20;;;;;;;20.00;32.21;101160.50;5228747;28;20085;-76
2022/04/19 15:48:06;;;;;;;6.43;3.67;;;;;;;19.85;30.92;101152.69;5230525;28;20528;-77
2022/04/19 15:50:39;;;;;;;4.43;3.67;;;;;;;19.91;31.11;101166.19;5240854;28;20393;-77
2022/04/19 15:53:14;;;;;;;4.30;3.53;;;;;;;19.97;31.07;101161.19;5239049;28;20057;-76
2022/04/19 15:55:45;;;;;;;3.92;3.17;;;;;;;19.91;31.00;101165.38;5220600;28;20469;-77
2022/04/19 15:58:17;;;;;;;6.47;5.45;;;;;;;19.92;30.72;101165.03;5233749;28;20115;-77
2022/04/19 16:00:48;;;;;;;4.65;3.35;;;;;;;19.98;30.51;101171.28;5237535;28;20033;-77
2022/04/19 16:03:21;;;;;;;3.85;2.90;;;;;;;19.93;30.68;101166.66;5232687;28;20018;-76
2022/04/19 16:05:55;;;;;;;11.35;8.43;;;;;;;19.75;30.68;101168.00;5216062;28;20112;-77
2022/04/19 16:08:27;;;;;;;8.60;4.30;;;;;;;19.83;30.86;101166.28;5225981;28;20088;-75
2022/04/19 16:11:00;;;;;;;5.30;4.07;;;;;;;19.68;31.30;101157.28;5239350;28;20033;-78
2022/04/19 16:13:32;;;;;;;7.15;3.70;;;;;;;19.62;31.51;101169.06;5221894;28;20083;-72
2022/04/19 16:23:20;;;;;;;4.82;3.20;;;;;;;19.59;31.47;101164.97;5225986;28;20038;-73
2022/04/19 16:25:00;;;;;;;6.68;3.90;;;;;;;19.61;32.95;101165.44;5200580;28;20037;-71
2022/04/19 16:27:35;;;;;;;7.72;4.40;;;;;;;19.63;32.71;101170.72;5228911;28;20116;-72
2022/04/19 16:30:07;;;;;;;5.50;4.90;;;;;;;19.65;32.60;101168.38;5244589;28;20075;-71
2022/04/19 16:32:39;;;;;;;4.45;4.03;;;;;;;19.68;33.77;101170.53;5237784;28;20045;-73
2022/04/19 16:35:11;;;;;;;7.53;4.60;;;;;;;19.62;33.07;101172.72;5234117;28;20388;-73
2022/04/19 16:37:45;;;;;;;6.03;3.47;;;;;;;19.53;32.33;101175.59;5230162;28;20038;-73
2022/04/19 16:40:16;;;;;;;5.20;3.47;;;;;;;19.44;31.81;101174.00;5242299;28;20391;-73
2022/04/19 16:42:48;;;;;;;4.38;3.92;;;;;;;19.31;31.97;101175.94;5244946;28;20144;-73
2022/04/19 16:45:22;;;;;;;5.05;4.10;;;;;;;19.36;32.02;101167.28;5243975;28;20028;-72
2022/04/19 16:47:56;;;;;;;5.55;3.65;;;;;;;19.39;32.18;101169.41;5244317;28;20021;-72
2022/04/19 16:50:29;;;;;;;6.53;3.63;;;;;;;19.29;32.18;101175.44;5235797;28;20026;-70
2022/04/19 16:53:00;;;;;;;5.93;4.07;;;;;;;19.24;32.01;101170.00;5232828;28;20026;-69
2022/04/19 16:55:32;;;;;;;5.25;3.92;;;;;;;19.15;31.94;101169.22;5230137;28;20358;-69
2022/04/19 16:58:07;;;;;;;5.78;3.60;;;;;;;19.11;32.13;101178.34;5241056;28;20451;-69
2022/04/19 17:00:38;;;;;;;3.90;3.50;;;;;;;19.14;32.72;101178.84;5244196;28;20038;-69
2022/04/19 17:05:59;;;;;;;4.82;4.20;;;;;;;18.90;32.48;101178.31;5244052;28;20108;-69
2022/04/19 17:08:31;;;;;;;6.10;4.13;;;;;;;18.90;32.59;101185.91;5223624;28;20534;-68
2022/04/19 17:11:05;;;;;;;7.07;4.50;;;;;;;18.67;32.92;101177.72;5237783;28;20022;-68
2022/04/19 17:13:36;;;;;;;6.43;3.85;;;;;;;18.82;32.70;101172.75;5231035;28;20070;-70
2022/04/19 17:16:07;;;;;;;9.00;5.82;;;;;;;18.74;33.42;101176.34;5244356;28;20116;-69
2022/04/19 17:18:39;;;;;;;6.10;4.28;;;;;;;18.73;33.35;101175.53;5244168;28;20029;-70
2022/04/19 17:21:10;;;;;;;4.78;4.07;;;;;;;18.59;33.27;101175.78;5228978;28;20041;-69
2022/04/19 17:23:42;;;;;;;5.95;3.95;;;;;;;18.52;33.49;101175.47;5240152;28;20400;-69
2022/04/19 17:26:16;;;;;;;5.35;4.10;;;;;;;18.45;33.87;101175.97;5233478;28;20021;-69
2022/04/19 17:28:47;;;;;;;4.30;3.90;;;;;;;18.42;33.93;101173.84;5228589;28;20088;-69
